createdAt,value
2023-12-12T00:02:00.429Z,9.68
2023-12-12T00:04:28.112Z,11.20
2023-12-12T00:06:55.493Z,11.65
2023-12-12T00:09:22.724Z,10.25
2023-12-12T00:11:50.664Z,15.07
2023-12-12T00:14:17.976Z,12.18
2023-12-12T00:16:45.290Z,14.52
2023-12-12T00:19:12.631Z,15.88
2023-12-12T00:21:39.906Z,11.07
2023-12-12T00:24:07.984Z,10.50
2023-12-12T00:26:35.224Z,10.57
2023-12-12T00:29:02.641Z,11.93
2023-12-12T00:31:30.010Z,10.73
2023-12-12T00:33:57.685Z,11.48
2023-12-12T00:36:24.973Z,11.65
2023-12-12T00:38:52.411Z,10.40
2023-12-12T00:41:19.669Z,12.75
2023-12-12T00:43:47.074Z,9.80
2023-12-12T00:46:14.570Z,13.45
2023-12-12T00:48:42.167Z,10.68
2023-12-12T00:51:10.425Z,10.75
2023-12-12T00:53:37.900Z,10.80
2023-12-12T00:56:05.547Z,8.07
2023-12-12T00:58:33.060Z,11.13
2023-12-12T01:01:00.488Z,9.50
2023-12-12T01:03:28.698Z,10.63
2023-12-12T01:05:56.010Z,9.10
2023-12-12T01:08:23.420Z,12.20
2023-12-12T01:10:50.656Z,10.05
2023-12-12T01:13:18.084Z,11.30
2023-12-12T01:15:45.300Z,10.95
2023-12-12T01:18:12.645Z,16.08
2023-12-12T01:20:40.017Z,11.57
2023-12-12T01:23:07.354Z,15.20
2023-12-12T01:25:34.990Z,12.38
2023-12-12T01:28:02.306Z,8.48
2023-12-12T01:30:29.913Z,9.13
2023-12-12T01:32:57.285Z,11.15
2023-12-12T01:35:24.571Z,10.70
2023-12-12T01:37:52.019Z,8.80
2023-12-12T01:40:19.427Z,7.95
2023-12-12T01:42:46.727Z,11.27
2023-12-12T01:45:15.989Z,12.35
2023-12-12T01:47:44.707Z,8.43
2023-12-12T01:50:12.413Z,7.45
2023-12-12T01:52:39.956Z,9.65
2023-12-12T01:55:07.873Z,8.70
2023-12-12T01:57:35.314Z,8.63
2023-12-12T02:00:03.674Z,7.43
2023-12-12T02:02:39.878Z,8.55
2023-12-12T02:05:07.414Z,6.15
2023-12-12T02:07:37.155Z,8.35
2023-12-12T02:10:04.913Z,8.80
2023-12-12T02:12:33.498Z,8.55
2023-12-12T02:15:00.883Z,11.93
2023-12-12T02:17:28.596Z,8.52
2023-12-12T02:19:56.016Z,9.80
2023-12-12T02:22:23.424Z,6.53
2023-12-12T02:24:50.857Z,8.45
2023-12-12T02:27:18.197Z,9.65
2023-12-12T02:29:45.729Z,9.38
2023-12-12T02:32:13.049Z,6.47
2023-12-12T02:34:40.469Z,6.95
2023-12-12T02:37:07.724Z,8.00
2023-12-12T02:39:35.098Z,8.98
2023-12-12T02:42:02.463Z,7.82
2023-12-12T02:44:29.772Z,5.60
2023-12-12T02:46:57.109Z,9.82
2023-12-12T02:49:24.577Z,6.43
2023-12-12T02:51:52.211Z,5.68
2023-12-12T02:54:19.594Z,8.52
2023-12-12T02:56:47.107Z,10.18
2023-12-12T02:59:14.438Z,5.30
2023-12-12T03:01:41.929Z,7.82
2023-12-12T03:04:09.538Z,7.78
2023-12-12T03:06:36.914Z,8.32
2023-12-12T03:09:04.363Z,6.45
2023-12-12T03:11:32.127Z,7.05
2023-12-12T03:13:59.540Z,5.57
2023-12-12T03:16:27.145Z,4.82
2023-12-12T03:18:54.762Z,4.35
2023-12-12T03:21:22.228Z,13.95
2023-12-12T03:23:49.606Z,5.20
2023-12-12T03:26:16.926Z,4.10
2023-12-12T03:28:44.491Z,4.38
2023-12-12T03:31:11.881Z,5.35
2023-12-12T03:33:39.528Z,4.35
2023-12-12T03:36:10.669Z,4.45
2023-12-12T03:38:37.985Z,6.13
2023-12-12T03:41:05.406Z,3.78
2023-12-12T03:43:32.757Z,4.88
2023-12-12T03:46:00.093Z,4.43
2023-12-12T03:48:27.701Z,4.68
2023-12-12T03:50:55.766Z,4.32
2023-12-12T03:53:24.438Z,4.63
2023-12-12T03:55:51.678Z,4.40
2023-12-12T03:58:19.090Z,6.60
2023-12-12T04:00:46.517Z,5.47
2023-12-12T04:03:13.914Z,5.22
2023-12-12T04:05:41.730Z,3.85
2023-12-12T04:08:09.939Z,4.15
2023-12-12T04:10:37.442Z,6.13
2023-12-12T04:13:04.999Z,3.80
2023-12-12T04:15:32.712Z,2.92
2023-12-12T04:18:00.128Z,5.50
2023-12-12T04:20:27.691Z,6.05
2023-12-12T04:22:55.050Z,4.53
2023-12-12T04:25:22.753Z,5.78
2023-12-12T04:27:50.464Z,3.92
2023-12-12T04:30:18.136Z,7.20
2023-12-12T04:32:45.477Z,4.07
2023-12-12T04:35:12.884Z,5.05
2023-12-12T04:37:40.362Z,4.60
2023-12-12T04:40:08.712Z,3.95
2023-12-12T04:42:37.492Z,4.32
2023-12-12T04:45:05.413Z,4.30
2023-12-12T04:47:33.274Z,3.92
2023-12-12T04:50:01.112Z,5.72
2023-12-12T04:52:29.415Z,6.45
2023-12-12T04:54:56.772Z,5.63
2023-12-12T04:57:24.240Z,7.38
2023-12-12T04:59:51.595Z,4.25
2023-12-12T05:02:18.983Z,5.40
2023-12-12T05:04:46.211Z,3.78
2023-12-12T05:07:13.815Z,7.50
2023-12-12T05:09:41.718Z,4.22
2023-12-12T05:12:09.691Z,4.50
2023-12-12T05:14:36.933Z,4.50
2023-12-12T05:17:10.279Z,6.07
2023-12-12T05:19:38.783Z,7.00
2023-12-12T05:22:06.410Z,4.20
2023-12-12T05:24:34.471Z,5.57
2023-12-12T05:27:01.703Z,6.13
2023-12-12T05:29:29.661Z,9.25
2023-12-12T05:31:57.055Z,5.13
2023-12-12T05:34:24.550Z,8.27
2023-12-12T05:36:52.054Z,7.85
2023-12-12T05:39:19.364Z,7.20
2023-12-12T05:41:49.911Z,7.10
2023-12-12T05:44:17.593Z,5.72
2023-12-12T05:46:45.051Z,10.88
2023-12-12T05:49:12.438Z,6.45
2023-12-12T05:51:41.348Z,5.47
2023-12-12T05:54:13.703Z,6.88
2023-12-12T05:56:44.723Z,7.00
2023-12-12T05:59:15.908Z,5.20
2023-12-12T06:01:43.627Z,4.88
2023-12-12T06:04:14.822Z,10.77
2023-12-12T06:06:44.183Z,5.55
2023-12-12T06:09:13.162Z,4.28
2023-12-12T06:11:43.335Z,6.85
2023-12-12T06:14:11.333Z,7.78
2023-12-12T06:16:39.721Z,8.05
2023-12-12T06:19:07.556Z,6.43
2023-12-12T06:21:35.477Z,6.90
2023-12-12T06:24:04.067Z,6.38
2023-12-12T06:26:32.462Z,5.05
2023-12-12T06:29:00.102Z,5.57
2023-12-12T06:31:27.838Z,10.68
2023-12-12T06:33:55.487Z,9.57
2023-12-12T06:36:23.621Z,7.05
2023-12-12T06:38:50.867Z,12.32
2023-12-12T06:41:18.484Z,6.80
2023-12-12T06:43:45.807Z,6.25
2023-12-12T06:46:13.272Z,7.53
2023-12-12T06:48:40.631Z,8.73
2023-12-12T06:51:08.201Z,10.88
2023-12-12T06:53:35.449Z,8.10
2023-12-12T06:56:02.934Z,14.40
2023-12-12T06:58:30.798Z,7.82
2023-12-12T07:00:58.921Z,11.02
2023-12-12T07:03:26.301Z,10.57
2023-12-12T07:05:54.086Z,8.55
2023-12-12T07:08:23.434Z,8.00
2023-12-12T07:10:51.063Z,8.55
2023-12-12T07:13:19.675Z,16.02
2023-12-12T07:15:47.003Z,11.98
2023-12-12T07:18:15.792Z,9.75
2023-12-12T07:20:43.253Z,10.10
2023-12-12T07:23:10.662Z,9.10
2023-12-12T07:25:39.241Z,17.35
2023-12-12T07:28:06.863Z,11.77
2023-12-12T07:30:34.191Z,9.80
2023-12-12T07:33:01.664Z,13.07
2023-12-12T07:35:29.358Z,10.70
2023-12-12T07:37:57.992Z,14.05
2023-12-12T07:40:26.806Z,8.23
2023-12-12T07:42:54.306Z,11.75
2023-12-12T07:45:21.622Z,11.63
2023-12-12T07:47:49.224Z,15.90
2023-12-12T07:50:20.757Z,9.30
2023-12-12T07:52:48.966Z,8.80
2023-12-12T07:55:16.479Z,10.48
2023-12-12T07:57:45.344Z,6.13
2023-12-12T08:00:13.979Z,9.75
2023-12-12T08:02:41.931Z,9.45
2023-12-12T08:05:09.403Z,11.35
2023-12-12T08:07:37.321Z,11.15
2023-12-12T08:10:06.856Z,13.02
2023-12-12T08:12:35.561Z,13.73
2023-12-12T08:15:05.196Z,12.75
2023-12-12T08:17:33.079Z,15.25
2023-12-12T08:20:00.701Z,13.77
2023-12-12T08:22:28.362Z,13.23
2023-12-12T08:24:56.254Z,16.70
2023-12-12T08:27:23.821Z,17.63
2023-12-12T08:29:51.088Z,11.63
2023-12-12T08:32:18.528Z,8.95
2023-12-12T08:34:46.292Z,7.20
2023-12-12T08:37:14.689Z,6.45
2023-12-12T08:39:43.132Z,6.63
2023-12-12T08:42:11.772Z,6.10
2023-12-12T08:44:41.897Z,6.72
2023-12-12T08:47:09.236Z,11.65
2023-12-12T08:49:39.149Z,7.97
2023-12-12T08:52:09.712Z,8.88
2023-12-12T08:54:37.487Z,8.25
2023-12-12T08:57:07.576Z,10.45
2023-12-12T08:59:35.442Z,7.97
2023-12-12T09:02:02.914Z,7.97
2023-12-12T09:04:30.276Z,7.03
2023-12-12T09:06:57.664Z,7.45
2023-12-12T09:09:26.142Z,6.97
2023-12-12T09:11:53.507Z,9.70
2023-12-12T09:14:21.327Z,7.50
2023-12-12T09:16:48.705Z,5.45
2023-12-12T09:19:18.239Z,8.95
2023-12-12T09:21:45.721Z,7.45
2023-12-12T09:24:14.522Z,6.53
2023-12-12T09:26:42.065Z,7.45
2023-12-12T09:29:09.400Z,10.32
2023-12-12T09:31:37.044Z,5.97
2023-12-12T09:34:04.938Z,7.28
2023-12-12T09:36:33.206Z,6.50
2023-12-12T09:39:00.621Z,6.68
2023-12-12T09:41:27.982Z,10.45
2023-12-12T09:43:55.247Z,7.80
2023-12-12T09:46:24.567Z,8.27
2023-12-12T09:48:53.698Z,8.90
2023-12-12T09:51:22.873Z,5.78
2023-12-12T09:53:51.217Z,8.60
2023-12-12T09:56:19.368Z,6.47
2023-12-12T09:58:49.320Z,6.38
2023-12-12T10:01:17.453Z,9.90
2023-12-12T10:03:46.200Z,4.57
2023-12-12T10:06:14.391Z,8.70
2023-12-12T10:08:42.331Z,7.28
2023-12-12T10:11:11.469Z,7.18
2023-12-12T10:13:52.583Z,8.13
2023-12-12T10:16:20.316Z,8.15
2023-12-12T10:18:49.260Z,11.93
2023-12-12T10:21:24.347Z,11.93
2023-12-12T10:23:53.920Z,6.32
2023-12-12T10:26:34.401Z,8.65
2023-12-12T10:29:02.386Z,11.35
2023-12-12T10:31:30.313Z,8.52
2023-12-12T10:33:59.025Z,8.65
2023-12-12T10:36:26.852Z,8.38
2023-12-12T10:38:55.177Z,7.80
2023-12-12T10:41:25.995Z,12.60
2023-12-12T10:43:55.117Z,6.57
2023-12-12T10:46:24.891Z,11.18
2023-12-12T10:48:54.897Z,7.53
2023-12-12T10:51:24.775Z,7.32
2023-12-12T10:53:56.259Z,8.80
2023-12-12T10:56:24.617Z,9.20
2023-12-12T10:58:52.871Z,9.25
2023-12-12T11:01:21.015Z,7.43
2023-12-12T11:03:52.286Z,6.30
2023-12-12T11:06:20.726Z,6.80
2023-12-12T11:08:48.401Z,9.93
2023-12-12T11:11:22.575Z,11.00
2023-12-12T11:13:52.833Z,7.22
2023-12-12T11:16:20.771Z,8.27
2023-12-12T11:18:49.493Z,3.97
2023-12-12T11:21:43.161Z,7.03
2023-12-12T11:24:10.543Z,8.77
2023-12-12T11:26:38.395Z,7.47
2023-12-12T11:29:11.710Z,7.22
2023-12-12T11:31:57.154Z,6.90
2023-12-12T11:34:25.081Z,5.18
2023-12-12T11:36:59.049Z,5.28
2023-12-12T11:39:31.563Z,6.88
2023-12-12T11:42:00.577Z,5.70
2023-12-12T11:44:44.399Z,7.65
2023-12-12T11:47:16.561Z,7.00
2023-12-12T11:49:45.599Z,4.32
2023-12-12T11:52:39.028Z,4.88
2023-12-12T11:55:18.919Z,6.63
2023-12-12T11:57:46.822Z,6.47
2023-12-12T12:00:15.689Z,5.43
2023-12-12T12:02:43.287Z,4.43
2023-12-12T12:05:11.375Z,5.60
2023-12-12T12:07:41.515Z,7.07
2023-12-12T12:10:12.170Z,5.38
2023-12-12T12:12:39.547Z,7.60
2023-12-12T12:15:07.850Z,5.72
2023-12-12T12:17:36.448Z,7.80
2023-12-12T12:20:04.976Z,5.18
2023-12-12T12:22:32.995Z,6.70
2023-12-12T12:25:00.603Z,7.28
2023-12-12T12:27:28.194Z,7.03
2023-12-12T12:30:05.105Z,6.20
2023-12-12T12:32:34.162Z,4.82
2023-12-12T12:35:09.562Z,6.13
2023-12-12T12:37:38.494Z,6.35
2023-12-12T12:40:07.839Z,9.98
2023-12-12T12:42:39.846Z,9.00
2023-12-12T12:45:09.011Z,6.25
2023-12-12T12:47:36.588Z,4.30
2023-12-12T12:50:04.600Z,6.00
2023-12-12T12:52:33.245Z,5.05
2023-12-12T12:55:01.187Z,4.32
2023-12-12T12:57:28.479Z,3.35
2023-12-12T12:59:55.860Z,6.95
2023-12-12T13:02:23.232Z,3.72
2023-12-12T13:04:51.018Z,5.53
2023-12-12T13:07:18.367Z,4.28
2023-12-12T13:09:45.832Z,4.68
2023-12-12T13:12:13.122Z,4.53
2023-12-12T13:14:41.931Z,5.18
2023-12-12T13:17:10.077Z,6.82
2023-12-12T13:19:37.661Z,8.95
2023-12-12T13:22:05.365Z,6.88
2023-12-12T13:24:32.984Z,5.82
2023-12-12T13:27:00.187Z,3.92
2023-12-12T13:29:27.538Z,7.57
2023-12-12T13:31:54.796Z,3.72
2023-12-12T13:34:22.322Z,4.65
2023-12-12T13:36:49.588Z,3.70
2023-12-12T13:39:19.414Z,5.10
2023-12-12T13:41:50.038Z,5.00
2023-12-12T13:44:18.477Z,5.20
2023-12-12T13:46:46.212Z,3.35
2023-12-12T13:49:13.968Z,4.32
2023-12-12T13:51:47.114Z,5.93
2023-12-12T13:54:15.514Z,5.75
2023-12-12T13:56:44.519Z,4.25
2023-12-12T13:59:12.400Z,6.88
2023-12-12T14:01:39.935Z,5.53
2023-12-12T14:04:07.663Z,4.05
2023-12-12T14:06:35.071Z,5.28
2023-12-12T14:09:02.500Z,5.50
2023-12-12T14:11:30.406Z,5.40
2023-12-12T14:13:57.948Z,5.38
2023-12-12T14:16:29.034Z,4.78
2023-12-12T14:18:58.153Z,4.68
2023-12-12T14:21:25.403Z,4.78
2023-12-12T14:23:52.678Z,6.47
2023-12-12T14:26:23.499Z,6.88
2023-12-12T14:28:51.546Z,4.93
2023-12-12T14:31:19.719Z,6.53
2023-12-12T14:33:47.576Z,4.80
2023-12-12T14:36:15.873Z,4.80
2023-12-12T14:38:47.059Z,9.75
2023-12-12T14:41:15.391Z,5.45
2023-12-12T14:43:50.282Z,6.50
2023-12-12T14:46:18.299Z,4.10
2023-12-12T14:48:45.544Z,7.07
2023-12-12T14:51:14.930Z,4.40
2023-12-12T14:53:42.885Z,6.63
2023-12-12T14:56:11.687Z,6.72
2023-12-12T14:58:39.193Z,5.47
2023-12-12T15:01:06.936Z,5.57
2023-12-12T15:03:34.788Z,4.97
2023-12-12T15:06:04.109Z,6.07
2023-12-12T15:08:31.777Z,2.83
2023-12-12T15:14:03.001Z,5.75
2023-12-12T15:16:30.525Z,9.20
2023-12-12T15:18:58.026Z,7.22
2023-12-12T15:21:26.012Z,6.03
2023-12-12T15:23:53.277Z,7.68
2023-12-12T15:26:20.729Z,5.60
2023-12-12T15:28:48.046Z,6.28
2023-12-12T15:31:15.571Z,4.20
2023-12-12T15:33:43.047Z,6.53
2023-12-12T15:36:10.797Z,3.45
2023-12-12T15:38:38.550Z,4.45
2023-12-12T15:41:06.057Z,5.93
2023-12-12T15:43:35.386Z,5.53
2023-12-12T15:46:03.131Z,6.20
2023-12-12T15:48:30.705Z,5.80
2023-12-12T15:50:58.106Z,5.07
2023-12-12T15:53:25.854Z,3.53
2023-12-12T15:55:53.008Z,5.68
2023-12-12T15:58:21.334Z,5.65
2023-12-12T16:00:48.798Z,4.90
2023-12-12T16:03:16.101Z,4.28
2023-12-12T16:05:44.382Z,5.65
2023-12-12T16:08:13.668Z,5.10
2023-12-12T16:10:42.044Z,5.43
2023-12-12T16:13:11.782Z,5.07
2023-12-12T16:15:39.248Z,4.70
2023-12-12T16:18:06.447Z,6.88
2023-12-12T16:20:33.807Z,6.18
2023-12-12T16:23:01.337Z,8.55
2023-12-12T16:25:28.683Z,7.40
2023-12-12T16:27:57.765Z,4.45
2023-12-12T16:30:28.739Z,7.05
2023-12-12T16:33:01.201Z,10.17
2023-12-12T16:35:28.805Z,4.80
2023-12-12T16:37:56.229Z,6.20
2023-12-12T16:40:23.596Z,8.43
2023-12-12T16:42:50.969Z,5.53
2023-12-12T16:45:18.258Z,6.82
2023-12-12T16:47:45.750Z,11.82
2023-12-12T16:50:13.637Z,7.78
2023-12-12T16:52:40.846Z,6.05
2023-12-12T16:55:08.502Z,8.98
2023-12-12T16:57:37.759Z,7.10
2023-12-12T17:00:12.158Z,7.10
2023-12-12T17:02:39.819Z,8.80
2023-12-12T17:05:07.490Z,9.25
2023-12-12T17:07:35.331Z,9.10
2023-12-12T17:10:09.198Z,10.18
2023-12-12T17:12:40.332Z,8.23
2023-12-12T17:15:09.467Z,11.20
2023-12-12T17:17:36.903Z,12.85
2023-12-12T17:20:04.740Z,12.13
2023-12-12T17:22:32.252Z,17.85
2023-12-12T17:24:59.628Z,17.52
2023-12-12T17:27:27.249Z,14.50
2023-12-12T17:29:54.906Z,21.48
2023-12-12T17:32:22.464Z,15.13
2023-12-12T17:34:50.661Z,21.10
2023-12-12T17:37:18.130Z,17.77
2023-12-12T17:39:45.322Z,16.48
2023-12-12T17:42:12.692Z,17.08
2023-12-12T17:44:40.662Z,18.45
2023-12-12T17:47:08.015Z,22.30
2023-12-12T17:49:37.824Z,21.48
2023-12-12T17:52:05.725Z,22.67
2023-12-12T17:54:32.934Z,24.67
2023-12-12T17:57:00.345Z,19.20
2023-12-12T17:59:27.557Z,21.15
2023-12-12T18:01:55.627Z,23.38
2023-12-12T18:04:23.016Z,28.33
2023-12-12T18:06:50.378Z,21.00
2023-12-12T18:09:20.869Z,21.63
2023-12-12T18:11:48.244Z,23.25
2023-12-12T18:14:15.452Z,26.63
2023-12-12T18:16:42.874Z,25.27
2023-12-12T18:19:10.499Z,24.73
2023-12-12T18:21:38.783Z,31.40
2023-12-12T18:24:06.499Z,24.15
2023-12-12T18:26:33.854Z,25.48
2023-12-12T18:29:05.225Z,26.48
2023-12-12T18:31:33.395Z,25.48
2023-12-12T18:34:01.113Z,26.25
2023-12-12T18:36:28.981Z,24.55
2023-12-12T18:38:56.315Z,24.70
2023-12-12T18:41:24.322Z,24.80
2023-12-12T18:43:51.775Z,28.05
2023-12-12T18:46:19.416Z,24.30
2023-12-12T18:48:47.094Z,22.20
2023-12-12T18:51:14.476Z,25.90
2023-12-12T18:53:41.851Z,22.50
2023-12-12T18:56:10.507Z,20.95
2023-12-12T18:58:38.526Z,23.48
2023-12-12T19:01:06.080Z,19.77
2023-12-12T19:03:33.534Z,26.23
2023-12-12T19:06:00.892Z,19.40
2023-12-12T19:08:28.960Z,20.05
2023-12-12T19:10:56.357Z,22.75
2023-12-12T19:13:24.944Z,22.40
2023-12-12T19:15:53.592Z,26.48
2023-12-12T19:18:21.647Z,28.65
2023-12-12T19:20:49.151Z,24.85
2023-12-12T19:23:17.008Z,28.02
2023-12-12T19:25:44.522Z,27.08
2023-12-12T19:28:11.960Z,23.50
2023-12-12T19:30:39.400Z,23.80
2023-12-12T19:33:09.787Z,19.85
2023-12-12T19:35:39.054Z,17.38
2023-12-12T19:38:07.573Z,22.55
2023-12-12T19:40:37.712Z,23.20
2023-12-12T19:43:05.581Z,21.13
2023-12-12T19:45:32.949Z,20.85
2023-12-12T19:48:00.430Z,23.35
2023-12-12T19:50:28.098Z,19.27
2023-12-12T19:52:55.468Z,23.13
2023-12-12T19:55:24.526Z,21.65
2023-12-12T19:57:51.867Z,23.77
2023-12-12T20:00:19.659Z,30.67
2023-12-12T20:02:46.966Z,25.45
2023-12-12T20:05:14.372Z,24.10
2023-12-12T20:07:42.001Z,25.35
2023-12-12T20:10:14.329Z,27.65
2023-12-12T20:12:46.816Z,24.53
2023-12-12T20:15:16.347Z,26.23
2023-12-12T20:17:44.223Z,24.25
2023-12-12T20:20:13.219Z,20.77
2023-12-12T20:22:40.767Z,24.15
2023-12-12T20:25:08.549Z,23.55
2023-12-12T20:27:38.109Z,30.63
2023-12-12T20:30:07.161Z,27.50
2023-12-12T20:32:34.569Z,28.65
2023-12-12T20:35:04.590Z,19.25
2023-12-12T20:37:32.500Z,21.10
2023-12-12T20:39:59.985Z,25.35
2023-12-12T20:42:28.063Z,25.38
2023-12-12T20:44:56.345Z,20.80
2023-12-12T20:47:23.809Z,22.35
2023-12-12T20:49:51.498Z,19.70
2023-12-12T20:52:19.071Z,19.77
2023-12-12T20:54:46.747Z,22.10
2023-12-12T20:57:17.363Z,21.33
2023-12-12T20:59:44.708Z,25.70
2023-12-12T21:02:12.131Z,21.70
2023-12-12T21:04:42.559Z,31.33
2023-12-12T21:07:11.184Z,25.02
2023-12-12T21:09:38.537Z,25.58
2023-12-12T21:12:06.035Z,25.65
2023-12-12T21:14:33.414Z,24.08
2023-12-12T21:17:03.487Z,20.88
2023-12-12T21:19:31.381Z,27.80
2023-12-12T21:21:58.751Z,22.15
2023-12-12T21:24:26.178Z,21.48
2023-12-12T21:26:53.600Z,25.23
2023-12-12T21:29:21.012Z,27.08
2023-12-12T21:31:48.556Z,26.73
2023-12-12T21:34:16.122Z,27.30
2023-12-12T21:36:43.511Z,28.63
2023-12-12T21:39:10.913Z,26.27
2023-12-12T21:41:41.745Z,26.58
2023-12-12T21:44:09.180Z,25.83
2023-12-12T21:46:36.744Z,29.50
2023-12-12T21:49:04.298Z,25.27
2023-12-12T21:51:31.639Z,22.80
2023-12-12T21:53:58.986Z,23.35
2023-12-12T21:56:26.310Z,26.45
2023-12-12T21:58:57.156Z,31.48
2023-12-12T22:01:25.836Z,27.80
2023-12-12T22:03:53.249Z,25.48
2023-12-12T22:06:20.505Z,22.40
2023-12-12T22:08:47.864Z,26.05
2023-12-12T22:11:16.500Z,25.23
2023-12-12T22:13:44.746Z,30.63
2023-12-12T22:16:26.150Z,26.45
2023-12-12T22:18:57.600Z,28.15
2023-12-12T22:21:28.403Z,34.78
2023-12-12T22:23:56.441Z,32.13
2023-12-12T22:26:24.203Z,30.25
2023-12-12T22:28:52.700Z,31.75
2023-12-12T22:31:19.995Z,27.90
2023-12-12T22:33:47.410Z,30.73
2023-12-12T22:36:21.004Z,29.85
2023-12-12T22:38:49.982Z,29.55
2023-12-12T22:41:21.493Z,35.97
2023-12-12T22:43:49.891Z,29.63
2023-12-12T22:46:21.148Z,32.38
2023-12-12T22:48:49.880Z,27.38
2023-12-12T22:51:20.060Z,31.35
2023-12-12T22:53:47.511Z,25.83
2023-12-12T22:56:15.485Z,23.45
2023-12-12T22:58:43.301Z,26.67
2023-12-12T23:01:14.217Z,26.88
2023-12-12T23:03:41.529Z,25.40
2023-12-12T23:06:09.261Z,28.40
2023-12-12T23:08:36.786Z,22.58
2023-12-12T23:11:04.726Z,24.88
2023-12-12T23:13:32.005Z,25.42
2023-12-12T23:15:59.584Z,24.05
2023-12-12T23:18:26.979Z,35.15
2023-12-12T23:20:56.499Z,24.88
2023-12-12T23:23:24.477Z,24.45
2023-12-12T23:25:51.884Z,26.90
2023-12-12T23:28:19.394Z,23.85
2023-12-12T23:31:00.516Z,23.50
2023-12-12T23:33:35.083Z,21.23
2023-12-12T23:36:02.517Z,21.92
2023-12-12T23:38:29.923Z,20.08
2023-12-12T23:40:57.300Z,20.98
2023-12-12T23:43:24.688Z,17.15
2023-12-12T23:45:52.157Z,20.10
2023-12-12T23:48:19.755Z,15.98
2023-12-12T23:50:47.189Z,18.58
2023-12-12T23:53:14.447Z,10.48
2023-12-12T23:55:42.415Z,17.90
2023-12-12T23:58:09.817Z,15.13
